Baldwin, Arkansas
Current Conditions -  °F | °C
As of 2:53 PM on Saturday 22 Nov 2014 (Local Time) from KFYV Reporting Station
Moderate Rain Moderate Rain  
Wind Chill: 52°   Ceiling: 9000
Heat Index: 52°   Visibility: 7mi
Dew Point: 52°   Wind: 6mph
Humidity: 100%   Direction: 180°S
Pressure: 29.96"   Gusts: NA
Location:  35.9902°N, 94.083°W
Report Text: KFYV 222053Z 18005KT 7SM RA OVC090 11/11 A2996 RMK AO2 SLP145 P0004 60040 T01110111 58031 $
Loading
Personal Weather Stations






























Interactive Weather Map New forecast layout! Learn more

10-Day Weather Forecast

Advertisements
Track Severe Weather on mobile